Terminal Aerodrome Forecast
Issued by NWS Sioux Falls, SD

Home | Current Version | Previous Version | Graphics & Text | Print | Product List | Glossary Off
Versions: 1 2 3 4 5 6 7 8 9 10 11 12 13 14 15 16 17 18 19 20 21 22 23 24 25 26 27 28 29 30 31 32 33 34 35 36 37 38 39 40 41 42

000
FTUS43 KFSD 241059 AAC
TAFSUX
TAF AMD
KSUX 241059Z 2411/2506 32008KT P6SM VCSH SCT005 OVC020
     FM241300 35016KT 5SM -SHRA BR SCT006 OVC015
     FM241800 03014G23KT 4SM BR OVC015
     FM242100 02016G25KT 2SM -RA OVC010=

USA.gov is the U.S. government's official web portal to all federal, state and local government web resources and services.